*** The Vicarage Weather Feed ***

Nearby METAR Reports


 

CYOO - Oshawa, Municipal Airport, Ontario, Canada
Distance from station: NW 3.2km
Updated: 18/06/2018 03:00
Overcast
Overcast
 Wind from ENE
Wind: ENE 4 km/h
Temperature: 21°C
Dew Point: 16°C
Humidity: 73%
Barometer: 1012.9 hPa
Clouds: Overcast
Visibility: 14 km
Cloud details: Overcast 2591 m
2018/06/18 07:00 CYOO 180700Z AUTO 07002KT 9SM OVC085 21/16 A2991 RMK SLP127 DENSITY ALT 1200FT
CYKZ - Toronto, Buttonville, Municipal Airport, Ontario, Canada
Distance from station: W 39.75km
Updated: 18/06/2018 03:00
Overcast
Overcast
 Wind from SW
Wind: SW 11 km/h
Temperature: 26°C
Dew Point: 20°C
Humidity: 70%
Barometer: 1012.9 hPa
Clouds: Overcast
Visibility: 24 km
Cloud details: Few Clouds 2438 m
Overcast 8230 m
2018/06/18 07:00 CYKZ 180700Z 22006KT 15SM FEW080 OVC270 26/20 A2991 RMK AC1CS7 SLP124 DENSITY ALT 2100FT
 
CXTO - Toronto City, Buttonville, Ontario, Canada
Distance from station: WSW 49km
Updated: 18/06/2018 03:00

 
Temperature: 24°C
Dew Point: 19°C
Humidity: 74%
2018/06/18 07:00 CXTO 180700Z AUTO 24/19 RMK AO1 SLP127 T02350187 58009
CYTZ - Toronto City, Island Airport, Ontario, Canada
Distance from station: SW 51.7km
Updated: 18/06/2018 03:00
Clear
Clear
 Wind from calm
Wind: Calm
Temperature: 20°C
Dew Point: 18°C
Humidity: 88%
Barometer: 1012.5 hPa
Clouds: Clear
Visibility: 14 km
2018/06/18 07:00 CYTZ 180700Z AUTO 00000KT 9SM CLR 20/18 A2990 RMK SLP127 DENSITY ALT 800FT
 
CYPQ - Toronto, Peterborough Airport, Ontario, Canada
Distance from station: NE 54km
Updated: 18/06/2018 03:00
Mostly cloudy
Mostly cloudy
 Wind from S
Wind: S 9 km/h
Temperature: 22°C
Dew Point: 19°C
Humidity: 83%
Barometer: 1012.2 hPa
Clouds: Mostly cloudy
Visibility: 14 km
Cloud details: Partly cloudy 2134 m
Mostly cloudy 3048 m
Mostly cloudy 3658 m
2018/06/18 07:00 CYPQ 180700Z AUTO 17005KT 9SM SCT070 BKN100 BKN120 22/19 A2989 RMK SLP121 DENSITY ALT 1600FT
CWNC - Cobourg, (mars), Ontario, Canada
Distance from station: E 57km
Updated: 17/06/2018 20:00
NOT Current

 Wind from E
Wind: E 4 km/h
Temperature: 21°C
Dew Point: 14°C
Humidity: 64%
2018/06/18 00:00 CWNC 180000Z AUTO 09002KT 21/14 RMK AO1 SLP136 T02140141 58014
 
CYYZ - Toronto, Lester Pearson Airport, Ontario, Canada
Distance from station: W 65.5km
Updated: 18/06/2018 03:00
Overcast
Overcast
 Wind from WSW
Wind: WSW 11 km/h
Temperature: 25°C
Dew Point: 20°C
Humidity: 74%
Barometer: 1012.9 hPa
Clouds: Overcast
Visibility: 24 km
Cloud details: Mostly cloudy 2865 m
Overcast 7620 m
2018/06/18 07:00 CYYZ 180700Z 24006KT 15SM BKN094 OVC250 25/20 A2991 RMK AC6CI2 SLP126 DENSITY ALT 1900FT
CWGL - Lagoon City, Ontario, Canada
Distance from station: NNW 74km
Updated: 18/06/2018 03:00

 Wind from SSW
Wind: SSW 20 km/h
Temperature: 22°C
Dew Point: 19°C
Humidity: 83%
2018/06/18 07:00 CWGL 180700Z AUTO 21011KT 22/19 RMK AO1 SLP112 T02200194 58010
 
CWWZ - Port Weller Airport, Ontario, Canada
Distance from station: SSW 77km
Updated: 18/06/2018 03:00

 Wind from SSW
Wind: SSW 17 km/h
Temperature: 26°C
Dew Point: 20°C
Humidity: 70%
2018/06/18 07:00 CWWZ 180700Z AUTO 21009KT 26/20 RMK AO1 SLP127 T02580198 58010
CYSN - St.Catharines Niagara Airport, Ontario, Canada
Distance from station: SSW 81km
Updated: 17/06/2018 21:00
NOT Current
Mostly cloudy
Mostly cloudy
 Wind from SSW
Wind: SSW 15 km/h
Temperature: 26°C
Dew Point: 18°C
Humidity: 61%
Barometer: 1013.5 hPa
Clouds: Mostly cloudy
Visibility: 24 km
Cloud details: Mostly cloudy 7925 m
2018/06/18 01:00 CYSN 180100Z 20008KT 15SM BKN260 26/18 A2993 RMK CI7 LAST STFD OBS/NEXT 181100 UTC SLP136 DENSITY ALT 1700FT
This data is offered only as a general guide to local weather conditions. It should not be relied upon in lieu of officially disseminated weather information for determining possible risk to persons or property. This site, including all information contained therein, is made available as is without warranties of any kind, either express or implied. The Vicarage Weather Feed© includes links to other sites for user convenience only. The content of any linked third-party site is not controlled by The Vicarage Weather Feed©. Access to any third-party website through The Vicarage Weather Feed©, regardless of whether or not the third-party site is a linked site, is entirely at the users own risk. Externally sourced content or material is excluded from The Vicarage Weather Feed© copyright and is the copyright and property of the respective provider. Skywarn® and the Skywarn® logo are registered trademarks of the National Oceanic and Atmospheric Administration, used with permission.